Het weer levert geen direct gevaar op.    Er zijn geen waarschuwingen afgegeven.

Weather Underground Historische gegevens

Dagelijkse Samenvatting december 18, 2018 Eenheden:  Metrisch    Engels   Beide
« Vorige Dag
Volgende Dag »
Dagelijkse Wekelijkse Maandelijkse Jaarlijkse Aangepaste
  Huidig: Hoog: Laag: Gemiddeld:
Temperatuur: -14.4 °C -17.8 °C -15.2 °C -14.1 °C
Dauwpunt: -15.5 °C -17.8 °C -18.1 °C -16.9 °C
Vochtigheid: 87 % Humidity % 61 % 70 %
Wind snelheid: 0 km/h 0 km/h 0 km/h 5.1 km/h
Windvlaag: 0 km/h 0 km/h - -
Wind:Calm - - SE
Luchtdruk: 34425.5 hPa 0 hPa 34425.5 hPa -
Neerslag: 0 mm      
Historical Graphs
 
 
Tabel voor december 18, 2018
Tijd Temperatuur Dauwpunt Luchtdruk Wind Wind snelheid Windvlaag Vochtigheid Regenval per uur
-17.8 °C -17.8 °C 0 hPa Calm     Humidity % 0 mm
00:00 -15.2 °C -18.1 °C 34604.9 hPa SE 2.6 km/h 10.3 km/h 69 % 0 mm
00:03 -15.2 °C -18.1 °C 34604.9 hPa SE 2.6 km/h 15.6 km/h 69 % 0 mm
00:10 -15.2 °C -18.1 °C 34604.9 hPa SE 2.6 km/h 10.3 km/h 69 % 0 mm
00:15 -15.1 °C -18.1 °C 34601.5 hPa SE 5.1 km/h 15.6 km/h 68 % 0 mm
00:20 -15.1 °C -18.1 °C 34601.5 hPa SE 7.7 km/h 12.9 km/h 68 % 0 mm
00:26 -15.1 °C -18.1 °C 34601.5 hPa SE 7.7 km/h 15.6 km/h 68 % 0 mm
00:37 -15.1 °C -18.1 °C 34598.1 hPa SE 5.1 km/h 15.6 km/h 68 % 0 mm
00:45 -15.1 °C -18.1 °C 34604.9 hPa SSE 5.1 km/h 15.6 km/h 68 % 0 mm
00:48 -15 °C -18.1 °C 34604.9 hPa SSE 7.7 km/h 15.6 km/h 67 % 0 mm
00:54 -14.9 °C -18.1 °C 34608.3 hPa SSE 7.7 km/h 20.8 km/h 67 % 0 mm
01:00 -14.9 °C -18 °C 34608.3 hPa SSE 12.9 km/h 15.6 km/h 67 % 0 mm
01:05 -14.8 °C -17.9 °C 34608.3 hPa SSE 12.9 km/h 20.8 km/h 67 % 0 mm
01:11 -14.8 °C -18.1 °C 34608.3 hPa SE 5.1 km/h 15.6 km/h 66 % 0 mm
01:22 -14.7 °C -17.9 °C 34611.7 hPa SE 5.1 km/h 15.6 km/h 66 % 0 mm
01:30 -14.6 °C -17.9 °C 34611.7 hPa SE 7.7 km/h 15.6 km/h 66 % 0 mm
01:33 -14.6 °C -17.9 °C 34615.1 hPa Calm   10.3 km/h 65 % 0 mm
01:39 -14.6 °C -17.9 °C 34615.1 hPa SSE 7.7 km/h 15.6 km/h 65 % 0 mm
01:45 -14.5 °C -17.8 °C 34608.3 hPa SE 7.7 km/h 15.6 km/h 65 % 0 mm
01:50 -14.4 °C -17.8 °C 34608.3 hPa SE 2.6 km/h 12.9 km/h 65 % 0 mm
01:56 -14.4 °C -17.9 °C 34608.3 hPa SSE 2.6 km/h 15.6 km/h 64 % 0 mm
02:07 -14.3 °C -17.8 °C 34604.9 hPa SSE 5.1 km/h 18.2 km/h 64 % 0 mm
02:15 -14.2 °C -17.8 °C 34611.7 hPa SE 7.7 km/h 18.2 km/h 63 % 0 mm
02:18 -14.1 °C -17.7 °C 34611.7 hPa SE 5.1 km/h 18.2 km/h 63 % 0 mm
02:24 -14.1 °C -17.7 °C 34615.1 hPa SE 5.1 km/h 15.6 km/h 63 % 0 mm
02:30 -14.1 °C -17.7 °C 34615.1 hPa SE 2.6 km/h 12.9 km/h 63 % 0 mm
02:35 -14.1 °C -17.7 °C 34615.1 hPa SE 7.7 km/h 20.8 km/h 63 % 0 mm
02:41 -14.1 °C -17.7 °C 34615.1 hPa SE 7.7 km/h 12.9 km/h 63 % 0 mm
02:52 -14 °C -17.7 °C 34618.5 hPa SE 7.7 km/h 20.8 km/h 63 % 0 mm
03:03 -14 °C -17.6 °C 34608.3 hPa SSE 12.9 km/h 18.2 km/h 63 % 0 mm
03:09 -14 °C -17.7 °C 34611.7 hPa SSE 12.9 km/h 15.6 km/h 62 % 0 mm
03:15 -14 °C -17.7 °C 34615.1 hPa SSE 12.9 km/h 25.9 km/h 62 % 0 mm
03:20 -14 °C -17.7 °C 34611.7 hPa SSE 5.1 km/h 15.6 km/h 62 % 0 mm
03:26 -13.9 °C -17.7 °C 34611.7 hPa SSE 7.7 km/h 15.6 km/h 62 % 0 mm
03:37 -13.9 °C -17.7 °C 34611.7 hPa SSE 5.1 km/h 18.2 km/h 62 % 0 mm
03:43 -13.9 °C -17.7 °C 34611.7 hPa Calm   12.9 km/h 62 % 0 mm
03:48 -13.9 °C -17.7 °C 34611.7 hPa SSE 2.6 km/h 10.3 km/h 62 % 0 mm
03:54 -13.9 °C -17.7 °C 34608.3 hPa SSE 2.6 km/h 10.3 km/h 62 % 0 mm
04:00 -13.9 °C -17.7 °C 34608.3 hPa SSE 5.1 km/h 15.6 km/h 62 % 0 mm
04:05 -13.9 °C -17.7 °C 34608.3 hPa SE 5.1 km/h 15.6 km/h 62 % 0 mm
04:11 -13.9 °C -17.7 °C 34611.7 hPa SSE 7.7 km/h 23.3 km/h 62 % 0 mm
04:16 -13.9 °C -17.7 °C 34611.7 hPa SSE 7.7 km/h 15.6 km/h 62 % 0 mm
04:22 -13.9 °C -17.7 °C 34611.7 hPa SSE 5.1 km/h 15.6 km/h 62 % 0 mm
04:30 -13.9 °C -17.7 °C 34611.7 hPa SE 7.7 km/h 20.8 km/h 62 % 0 mm
04:33 -14 °C -17.7 °C 34611.7 hPa Calm   12.9 km/h 62 % 0 mm
04:39 -14 °C -17.7 °C 34608.3 hPa Calm   2.6 km/h 62 % 0 mm
04:45 -14 °C -17.7 °C 34608.3 hPa SE 2.6 km/h 15.6 km/h 62 % 0 mm
04:50 -14 °C -17.7 °C 34608.3 hPa SE 7.7 km/h 20.8 km/h 62 % 0 mm
04:56 -14 °C -17.7 °C 34608.3 hPa SE 5.1 km/h 12.9 km/h 62 % 0 mm
05:01 -14 °C -17.7 °C 34611.7 hPa SE 7.7 km/h 20.8 km/h 62 % 0 mm
05:07 -14 °C -17.8 °C 34608.3 hPa SE 7.7 km/h 18.2 km/h 62 % 0 mm
05:07 -14.1 °C -17.8 °C 34611.7 hPa SE 12.9 km/h 20.8 km/h 62 % 0 mm
05:15 -14.1 °C -17.8 °C 34611.7 hPa SE 15.6 km/h 25.9 km/h 62 % 0 mm
05:18 -14.1 °C -17.9 °C 34611.7 hPa SE 7.7 km/h 20.8 km/h 62 % 0 mm
05:24 -14.1 °C -17.9 °C 34611.7 hPa SE 2.6 km/h 20.8 km/h 62 % 0 mm
05:30 -14.2 °C -17.9 °C 34611.7 hPa SSE 7.7 km/h 18.2 km/h 62 % 0 mm
05:35 -14.2 °C -18 °C 34611.7 hPa SE 2.6 km/h 15.6 km/h 62 % 0 mm
05:41 -14.2 °C -18 °C 34615.1 hPa SE 7.7 km/h 20.8 km/h 62 % 0 mm
05:46 -14.3 °C -18 °C 34615.1 hPa SE 2.6 km/h 18.2 km/h 62 % 0 mm
05:52 -14.3 °C -18 °C 34618.5 hPa Calm   12.9 km/h 62 % 0 mm
06:00 -14.2 °C -18 °C 34615.1 hPa SE 5.1 km/h 20.8 km/h 62 % 0 mm
06:03 -14.2 °C -18 °C 34615.1 hPa SE 2.6 km/h 15.6 km/h 62 % 0 mm
06:09 -14.2 °C -18 °C 34611.7 hPa SSE 2.6 km/h 15.6 km/h 62 % 0 mm
06:15 -14.2 °C -18 °C 34611.7 hPa SSE 5.1 km/h 18.2 km/h 62 % 0 mm
06:20 -14.2 °C -18 °C 34615.1 hPa SE 5.1 km/h 15.6 km/h 62 % 0 mm
06:26 -14.2 °C -18 °C 34615.1 hPa SE 7.7 km/h 18.2 km/h 62 % 0 mm
06:31 -14.2 °C -17.9 °C 34611.7 hPa SSE 5.1 km/h 15.6 km/h 62 % 0 mm
06:37 -14.2 °C -17.9 °C 34615.1 hPa SE 7.7 km/h 20.8 km/h 62 % 0 mm
06:45 -14.2 °C -17.9 °C 34618.5 hPa SSE 7.7 km/h 18.2 km/h 62 % 0 mm
06:48 -14.2 °C -17.9 °C 34618.5 hPa SSE 5.1 km/h 12.9 km/h 62 % 0 mm
06:55 -14.1 °C -17.9 °C 34615.1 hPa SSE 5.1 km/h 18.2 km/h 62 % 0 mm
07:00 -14.1 °C -17.9 °C 34618.5 hPa SE 2.6 km/h 12.9 km/h 62 % 0 mm
07:05 -14.1 °C -17.9 °C 34615.1 hPa SE 12.9 km/h 20.8 km/h 62 % 0 mm
07:11 -14.1 °C -18 °C 34618.5 hPa SE 5.1 km/h 12.9 km/h 61 % 0 mm
07:22 -14.1 °C -18 °C 34621.9 hPa SE 5.1 km/h 18.2 km/h 61 % 0 mm
07:30 -14.2 °C -18.1 °C 34621.9 hPa SE 7.7 km/h 23.3 km/h 61 % 0 mm
07:33 -14.2 °C -18.1 °C 34621.9 hPa SE 5.1 km/h 18.2 km/h 61 % 0 mm
07:40 -14.2 °C -18.1 °C 34621.9 hPa SE 5.1 km/h 15.6 km/h 61 % 0 mm
07:45 -14.2 °C -18.1 °C 34618.5 hPa SE 5.1 km/h 18.2 km/h 61 % 0 mm
07:50 -14.2 °C -18.1 °C 34615.1 hPa SE 2.6 km/h 20.8 km/h 61 % 0 mm
07:56 -14.2 °C -18.1 °C 34615.1 hPa SE 12.9 km/h 20.8 km/h 61 % 0 mm
08:07 -14.2 °C -18.1 °C 34615.1 hPa SE 12.9 km/h 20.8 km/h 61 % 0 mm
08:15 -14.2 °C -18.1 °C 34611.7 hPa SE 5.1 km/h 20.8 km/h 61 % 0 mm
08:18 -14.2 °C -18 °C 34611.7 hPa SE 2.6 km/h 18.2 km/h 62 % 0 mm
08:25 -14.2 °C -18.1 °C 34608.3 hPa SE 7.7 km/h 20.8 km/h 61 % 0 mm
08:30 -14.2 °C -18.1 °C 34604.9 hPa SE 5.1 km/h 15.6 km/h 61 % 0 mm
08:35 -14.2 °C -18.1 °C 34598.1 hPa Calm   12.9 km/h 61 % 0 mm
08:41 -14.2 °C -18.1 °C 34598.1 hPa Calm   5.1 km/h 61 % 0 mm
08:52 -14.2 °C -17.9 °C 34591.4 hPa Calm   2.6 km/h 62 % 0 mm
09:00 -14.2 °C -17.9 °C 34591.4 hPa Calm   10.3 km/h 62 % 0 mm
09:03 -14.2 °C -17.9 °C 34591.4 hPa ESE 5.1 km/h 20.8 km/h 62 % 0 mm
09:09 -14.2 °C -17.9 °C 34591.4 hPa Calm   2.6 km/h 62 % 0 mm
09:15 -14.1 °C -17.9 °C 34588 hPa Calm   15.6 km/h 62 % 0 mm
09:15 -14.1 °C -17.9 °C 34588 hPa Calm   2.6 km/h 62 % 0 mm
09:26 -14.1 °C -17.9 °C 34584.6 hPa Calm   2.6 km/h 62 % 0 mm
09:37 -14.1 °C -17.8 °C 34588 hPa Calm   12.9 km/h 62 % 0 mm
09:45 -14.1 °C -17.8 °C 34591.4 hPa ESE 7.7 km/h 15.6 km/h 62 % 0 mm
09:48 -14.1 °C -17.8 °C 34588 hPa ESE 5.1 km/h 23.3 km/h 62 % 0 mm
09:54 -14 °C -17.8 °C 34584.6 hPa ESE 7.7 km/h 31.1 km/h 62 % 0 mm
10:00 -14 °C -17.8 °C 34584.6 hPa ESE 2.6 km/h 23.3 km/h 62 % 0 mm
10:05 -14 °C -17.7 °C 34581.2 hPa ESE 7.7 km/h 23.3 km/h 62 % 0 mm
10:11 -14 °C -17.6 °C 34581.2 hPa ESE 5.1 km/h 20.8 km/h 63 % 0 mm
10:22 -13.9 °C -17.6 °C 34581.2 hPa SE 2.6 km/h 12.9 km/h 63 % 0 mm
10:30 -13.9 °C -17.6 °C 34581.2 hPa ESE 2.6 km/h 20.8 km/h 63 % 0 mm
10:33 -13.9 °C -17.4 °C 34581.2 hPa SE 15.6 km/h 38.8 km/h 64 % 0 mm
10:39 -13.9 °C -17.4 °C 34574.4 hPa ESE 5.1 km/h 20.8 km/h 64 % 0 mm
10:45 -13.9 °C -17.3 °C 34571.1 hPa ESE 12.9 km/h 23.3 km/h 65 % 0 mm
10:50 -13.9 °C -17.3 °C 34574.4 hPa SE 2.6 km/h 18.2 km/h 65 % 0 mm
10:56 -13.9 °C -17.2 °C 34577.8 hPa SE 12.9 km/h 31.1 km/h 66 % 0 mm
11:07 -13.9 °C -17.1 °C 34581.2 hPa SE 5.1 km/h 23.3 km/h 67 % 0 mm
11:13 -14 °C -16.8 °C 34574.4 hPa SE 15.6 km/h 28.5 km/h 70 % 0 mm
11:18 -14 °C -16.8 °C 34571.1 hPa SE 5.1 km/h 23.3 km/h 70 % 0 mm
11:24 -14 °C -16.7 °C 34564.3 hPa SE 7.7 km/h 28.5 km/h 71 % 0 mm
11:30 -14 °C -16.6 °C 34564.3 hPa SE 20.8 km/h 36.2 km/h 72 % 0 mm
11:35 -13.9 °C -16.4 °C 34564.3 hPa SE 12.9 km/h 36.2 km/h 73 % 0 mm
11:41 -13.9 °C -16.3 °C 34560.9 hPa SE 5.1 km/h 15.6 km/h 74 % 0 mm
11:52 -13.9 °C -16.2 °C 34550.7 hPa SE 7.7 km/h 18.2 km/h 75 % 0 mm
11:58 -13.9 °C -16.1 °C 34540.6 hPa SE 15.6 km/h 31.1 km/h 76 % 0 mm
12:03 -13.9 °C -16 °C 34533.8 hPa SE 12.9 km/h 20.8 km/h 77 % 0 mm
12:09 -13.9 °C -15.9 °C 34533.8 hPa SE 5.1 km/h 23.3 km/h 78 % 0 mm
12:15 -13.9 °C -15.9 °C 34530.4 hPa SE 12.9 km/h 25.9 km/h 78 % 0 mm
12:20 -13.9 °C -15.8 °C 34527 hPa SE 12.9 km/h 20.8 km/h 79 % 0 mm
12:26 -13.8 °C -15.7 °C 34523.7 hPa SE 7.7 km/h 20.8 km/h 79 % 0 mm
12:31 -13.8 °C -15.7 °C 34520.3 hPa SE 2.6 km/h 18.2 km/h 79 % 0 mm
12:37 -13.8 °C -15.7 °C 34516.9 hPa SE 2.6 km/h 15.6 km/h 79 % 0 mm
12:45 -13.7 °C -15.6 °C 34513.5 hPa ESE 2.6 km/h 15.6 km/h 79 % 0 mm
12:48 -13.7 °C -15.5 °C 34513.5 hPa ESE 2.6 km/h 20.8 km/h 80 % 0 mm
12:54 -13.7 °C -15.4 °C 34516.9 hPa Calm   12.9 km/h 81 % 0 mm
13:00 -13.7 °C -15.2 °C 34513.5 hPa ESE 2.6 km/h 15.6 km/h 82 % 0 mm
13:05 -13.6 °C -15.2 °C 34510.1 hPa ESE 2.6 km/h 15.6 km/h 82 % 0 mm
13:11 -13.6 °C -15.1 °C 34510.1 hPa ESE 7.7 km/h 20.8 km/h 83 % 0 mm
13:16 -13.5 °C -15.1 °C 34506.7 hPa ESE 5.1 km/h 20.8 km/h 83 % 0 mm
13:22 -13.5 °C -14.9 °C 34506.7 hPa Calm   10.3 km/h 84 % 0 mm
13:30 -13.4 °C -14.8 °C 34500 hPa ESE 5.1 km/h 28.5 km/h 85 % 0 mm
13:33 -13.4 °C -14.7 °C 34500 hPa ESE 5.1 km/h 23.3 km/h 86 % 0 mm
13:39 -13.4 °C -14.7 °C 34500 hPa ESE 5.1 km/h 18.2 km/h 86 % 0 mm
13:45 -13.4 °C -14.6 °C 34500 hPa ESE 2.6 km/h 15.6 km/h 87 % 0 mm
13:50 -13.4 °C -14.6 °C 34496.6 hPa ESE 2.6 km/h 15.6 km/h 87 % 0 mm
13:56 -13.4 °C -14.6 °C 34496.6 hPa ESE 5.1 km/h 20.8 km/h 87 % 0 mm
14:01 -13.4 °C -14.6 °C 34493.2 hPa ESE 5.1 km/h 20.8 km/h 87 % 0 mm
14:07 -13.4 °C -14.4 °C 34493.2 hPa ESE 2.6 km/h 23.3 km/h 88 % 0 mm
14:15 -13.3 °C -14.4 °C 34483 hPa East 5.1 km/h 18.2 km/h 88 % 0 mm
14:18 -13.4 °C -14.4 °C 34479.6 hPa East 2.6 km/h 18.2 km/h 88 % 0 mm
14:24 -13.4 °C -14.4 °C 34476.3 hPa East 2.6 km/h 23.3 km/h 88 % 0 mm
14:30 -13.4 °C -14.4 °C 34472.9 hPa East 5.1 km/h 15.6 km/h 88 % 0 mm
14:35 -13.4 °C -14.4 °C 34476.3 hPa East 5.1 km/h 15.6 km/h 88 % 0 mm
14:41 -13.4 °C -14.5 °C 34472.9 hPa East 5.1 km/h 23.3 km/h 88 % 0 mm
14:46 -13.4 °C -14.5 °C 34472.9 hPa Calm     88 % 0 mm
14:52 -13.4 °C -14.5 °C 34469.5 hPa ESE 2.6 km/h 18.2 km/h 88 % 0 mm
15:00 -13.5 °C -14.4 °C 34466.1 hPa East 2.6 km/h 12.9 km/h 89 % 0 mm
15:03 -13.5 °C -14.4 °C 34466.1 hPa East 5.1 km/h 18.2 km/h 89 % 0 mm
15:10 -13.5 °C -14.5 °C 34466.1 hPa East 2.6 km/h 12.9 km/h 89 % 0 mm
15:15 -13.6 °C -14.5 °C 34466.1 hPa Calm   18.2 km/h 89 % 0 mm
15:20 -13.6 °C -14.6 °C 34466.1 hPa East 2.6 km/h 15.6 km/h 88 % 0 mm
15:26 -13.6 °C -14.6 °C 34462.7 hPa East 2.6 km/h 12.9 km/h 88 % 0 mm
15:37 -13.7 °C -14.6 °C 34459.3 hPa East 2.6 km/h 12.9 km/h 89 % 0 mm
15:45 -13.7 °C -14.7 °C 34452.6 hPa East 2.6 km/h 15.6 km/h 89 % 0 mm
15:48 -13.8 °C -14.7 °C 34452.6 hPa East 5.1 km/h 20.8 km/h 89 % 0 mm
15:55 -13.8 °C -14.8 °C 34449.2 hPa East 2.6 km/h 12.9 km/h 88 % 0 mm
16:00 -13.8 °C -14.9 °C 34445.8 hPa Calm   5.1 km/h 88 % 0 mm
16:05 -13.9 °C -14.9 °C 34445.8 hPa Calm   5.1 km/h 88 % 0 mm
16:11 -13.9 °C -14.9 °C 34442.4 hPa East 2.6 km/h 12.9 km/h 88 % 0 mm
16:11 -14 °C -15 °C 34439 hPa East 5.1 km/h 15.6 km/h 88 % 0 mm
16:22 -14.1 °C -15.1 °C 34439 hPa East 2.6 km/h 12.9 km/h 88 % 0 mm
16:30 -14.1 °C -15.2 °C 34435.6 hPa East 5.1 km/h 15.6 km/h 88 % 0 mm
16:33 -14.2 °C -15.3 °C 34435.6 hPa ENE 2.6 km/h 10.3 km/h 87 % 0 mm
16:40 -14.2 °C -15.3 °C 34435.6 hPa Calm   12.9 km/h 87 % 0 mm
16:45 -14.3 °C -15.4 °C 34432.2 hPa Calm   12.9 km/h 87 % 0 mm
16:50 -14.3 °C -15.4 °C 34428.8 hPa East 2.6 km/h 18.2 km/h 87 % 0 mm
16:56 -14.3 °C -15.4 °C 34428.8 hPa East 5.1 km/h 15.6 km/h 87 % 0 mm
17:07 -14.3 °C -15.4 °C 34425.5 hPa Calm   7.7 km/h 87 % 0 mm
17:15 -14.4 °C -15.5 °C 34425.5 hPa East 2.6 km/h 15.6 km/h 87 % 0 mm
17:18 -14.4 °C -15.5 °C 34425.5 hPa East 2.6 km/h 12.9 km/h 87 % 0 mm
17:24 -14.4 °C -15.5 °C 34425.5 hPa Calm     87 % 0 mm
Meteo Sleen
Gegevens verzameld door Weather Underground - 2 mb

Script ontwikkeld door  Jim McMurry - jmcmurry@mwt.net Aangepast voor de template door  Wim van der Kuil - Leuven-Template.eu

U vindt ons ook hier:

Het Weer Aktueel

UK Metoffice

European Weather Network

Weather Underground

Benelux Weer Netwerk

AWEKAS

Citizen Weather Observer Program (CWOP)

Apparatuur in gebruik:

Weerstation
Davis VP2

Weerprogramma
consoleWD

Weercomputer
RaspberryPI

Webleverancier
Deziweb

Davis VP2

consoleWD

RaspberryPI

Deziweb